Time;durP1;ratioP1;P1;durP2;ratioP2;P2;SDS_P1;SDS_P2;PMS_P1;PMS_P2;Temp;Humidity;BMP_temperature;BMP_pressure;BME280_temperature;BME280_humidity;BME280_pressure;Samples;Min_cycle;Max_cycle;Signal;HPM_P1;HPM_P2
2022/06/12 00:02:43;;;;;;;;;;;;;;;;;;6185196;22;19977;-93
2022/06/12 00:05:15;;;;;;;;;;;;;;;;;;6206543;22;19920;-93
2022/06/12 00:08:09;;;;;;;;;;;;;;;;;;6215017;22;19915;-94
2022/06/12 00:10:30;;;;;;;;;;;;;;;;;;6224163;22;19923;-94
2022/06/12 00:12:58;;;;;;;;;;;;;;;;;;6204352;22;19919;-93
2022/06/12 00:15:41;;;;;;;;;;;;;;;;;;6206858;22;19923;-93
2022/06/12 00:21:15;;;;;;;;;;;;;;;;;;6217903;22;19923;-94
2022/06/12 00:23:47;;;;;;;;;;;;;;;;;;6229895;22;20278;-95
2022/06/12 00:32:16;;;;;;;;;;;;;;;;;;;;;
2022/06/12 00:35:01;;;;;;;;;;;;;;;;;;6270569;22;19918;-93
2022/06/12 00:37:34;;;;;;;;;;;;;;;;;;6205409;22;20006;-94
2022/06/12 00:40:28;;;;;;;;;;;;;;;;;;6210008;22;20004;-93
2022/06/12 00:46:13;;;;;;;;;;;;;;;;;;6229895;22;20243;-93
2022/06/12 00:48:44;;;;;;;;;;;;;;;;;;6213420;22;19919;-93
2022/06/12 00:51:20;;;;;;;;;;;;;;;;;;6222921;22;19930;-94
2022/06/12 00:53:51;;;;;;;;;;;;;;;;;;6210431;22;20381;-93
2022/06/12 00:56:23;;;;;;;;;;;;;;;;;;6211900;22;19922;-94
2022/06/12 01:01:45;;;;;;;;;;;;;;;;;;6220724;22;20254;-93
2022/06/12 01:07:02;;;;;;;;;;;;;;;;;;6175522;23;20000;-94
2022/06/12 01:09:38;;;;;;;;;;;;;;;;;;;;;
2022/06/12 01:12:22;;;;;;;;;;;;;;;;;;6209981;23;19923;-93
2022/06/12 01:14:50;;;;;;;;;;;;;;;;;;6172280;23;20296;-93
2022/06/12 01:17:22;;;;;;;;;;;;;;;;;;6175052;23;20019;-93
2022/06/12 01:20:05;;;;;;;;;;;;;;;;;;6171382;23;19920;-94
2022/06/12 01:22:50;;;;;;;;;;;;;;;;;;6171737;23;19920;-94
2022/06/12 01:25:18;;;;;;;;;;;;;;;;;;6173087;23;19954;-93
2022/06/12 01:27:56;;;;;;;;;;;;;;;;;;6175416;23;20421;-93
2022/06/12 01:33:09;;;;;;;;;;;;;;;;;;6196693;23;19920;-94
2022/06/12 01:35:40;;;;;;;;;;;;;;;;;;6170385;23;19927;-94
2022/06/12 01:38:07;;;;;;;;;;;;;;;;;;6174087;23;19926;-94
2022/06/12 01:40:35;;;;;;;;;;;;;;;;;;6173819;22;19935;-94
2022/06/12 01:43:04;;;;;;;;;;;;;;;;;;6204210;23;19931;-93
2022/06/12 01:45:39;;;;;;;;;;;;;;;;;;6176889;23;19951;-93
2022/06/12 01:48:10;;;;;;;;;;;;;;;;;;6205048;23;19919;-93
2022/06/12 01:50:47;;;;;;;;;;;;;;;;;;6202531;23;19927;-94
2022/06/12 01:53:15;;;;;;;;;;;;;;;;;;6176933;23;19998;-93
2022/06/12 01:55:41;;;;;;;;;;;;;;;;;;6202764;23;20014;-94
2022/06/12 01:58:07;;;;;;;;;;;;;;;;;;6205622;23;19920;-93
2022/06/12 02:00:33;;;;;;;;;;;;;;;;;;6200574;23;20259;-94
2022/06/12 02:03:00;;;;;;;;;;;;;;;;;;6180288;23;19924;-93
2022/06/12 02:05:26;;;;;;;;;;;;;;;;;;6202253;23;19919;-93
2022/06/12 02:07:52;;;;;;;;;;;;;;;;;;6205588;23;19958;-93
2022/06/12 02:10:39;;;;;;;;;;;;;;;;;;6203114;23;20336;-94
2022/06/12 02:13:13;;;;;;;;;;;;;;;;;;6204383;23;20060;-94
2022/06/12 02:15:47;;;;;;;;;;;;;;;;;;6212844;23;22374;-96
2022/06/12 02:18:13;;;;;;;;;;;;;;;;;;6207048;23;19945;-94
2022/06/12 02:20:40;;;;;;;;;;;;;;;;;;6204272;23;19958;-93
2022/06/12 02:23:09;;;;;;;;;;;;;;;;;;6204754;23;20231;-94
2022/06/12 02:25:44;;;;;;;;;;;;;;;;;;6204039;23;19923;-94
2022/06/12 02:28:16;;;;;;;;;;;;;;;;;;6204971;23;19927;-94
2022/06/12 02:30:47;;;;;;;;;;;;;;;;;;6204436;23;19985;-93
2022/06/12 02:33:21;;;;;;;;;;;;;;;;;;6188246;23;20014;-94
2022/06/12 02:35:49;;;;;;;;;;;;;;;;;;6226778;23;19920;-93
2022/06/12 02:41:04;;;;;;;;;;;;;;;;;;6207536;23;19923;-94
2022/06/12 02:43:36;;;;;;;;;;;;;;;;;;6193116;23;19924;-94
2022/06/12 02:46:12;;;;;;;;;;;;;;;;;;6205889;23;19959;-94
2022/06/12 02:48:53;;;;;;;;;;;;;;;;;;6205765;23;19962;-94
2022/06/12 02:51:19;;;;;;;;;;;;;;;;;;6204014;23;19930;-94
2022/06/12 02:53:49;;;;;;;;;;;;;;;;;;6201983;23;19926;-94
2022/06/12 02:56:15;;;;;;;;;;;;;;;;;;6203801;23;19916;-93
2022/06/12 02:58:49;;;;;;;;;;;;;;;;;;6179907;23;20510;-95
2022/06/12 03:01:20;;;;;;;;;;;;;;;;;;6178061;23;19977;-93
2022/06/12 03:03:46;;;;;;;;;;;;;;;;;;6185856;23;19964;-93
2022/06/12 03:06:27;;;;;;;;;;;;;;;;;;;;;
2022/06/12 03:08:56;;;;;;;;;;;;;;;;;;6233100;23;20011;-93
2022/06/12 03:11:29;;;;;;;;;;;;;;;;;;6184366;23;19924;-93
2022/06/12 03:13:57;;;;;;;;;;;;;;;;;;6182054;23;19923;-93
2022/06/12 03:16:27;;;;;;;;;;;;;;;;;;6185858;23;19920;-93
2022/06/12 03:19:01;;;;;;;;;;;;;;;;;;6199619;23;19926;-93
2022/06/12 03:21:29;;;;;;;;;;;;;;;;;;6190640;23;20058;-94
2022/06/12 03:23:55;;;;;;;;;;;;;;;;;;6204353;23;19919;-93
2022/06/12 03:26:23;;;;;;;;;;;;;;;;;;6204094;23;19955;-94
2022/06/12 03:29:02;;;;;;;;;;;;;;;;;;6251941;23;19920;-94
2022/06/12 03:31:28;;;;;;;;;;;;;;;;;;6221631;23;19931;-93
2022/06/12 03:34:28;;;;;;;;;;;;;;;;;;6197803;23;20170;-93
2022/06/12 03:36:59;;;;;;;;;;;;;;;;;;6236345;23;19919;-94
2022/06/12 03:39:27;;;;;;;;;;;;;;;;;;6205223;23;19919;-93
2022/06/12 03:42:05;;;;;;;;;;;;;;;;;;6207957;22;20343;-93
2022/06/12 03:44:48;;;;;;;;;;;;;;;;;;6207640;22;19926;-94
2022/06/12 03:47:21;;;;;;;;;;;;;;;;;;6211376;22;19973;-93
2022/06/12 03:49:47;;;;;;;;;;;;;;;;;;6226508;22;20140;-93
2022/06/12 03:52:15;;;;;;;;;;;;;;;;;;6209207;22;19947;-93
2022/06/12 03:54:44;;;;;;;;;;;;;;;;;;6206895;22;19919;-93
2022/06/12 03:59:58;;;;;;;;;;;;;;;;;;6232762;22;20372;-93
2022/06/12 04:02:30;;;;;;;;;;;;;;;;;;6206425;22;19919;-93
2022/06/12 04:04:59;;;;;;;;;;;;;;;;;;6208737;22;19923;-93
2022/06/12 04:07:28;;;;;;;;;;;;;;;;;;6207115;22;19930;-94
2022/06/12 04:09:54;;;;;;;;;;;;;;;;;;6212435;22;20319;-93
2022/06/12 04:12:23;;;;;;;;;;;;;;;;;;6208330;22;20258;-93
2022/06/12 04:15:12;;;;;;;;;;;;;;;;;;6208329;22;20327;-95
2022/06/12 04:17:41;;;;;;;;;;;;;;;;;;6213373;22;20305;-94
2022/06/12 04:20:14;;;;;;;;;;;;;;;;;;6211585;22;20311;-93
2022/06/12 04:23:01;;;;;;;;;;;;;;;;;;6208333;22;20290;-94
2022/06/12 04:25:32;;;;;;;;;;;;;;;;;;6206702;22;19919;-93
2022/06/12 04:28:04;;;;;;;;;;;;;;;;;;6207983;22;19994;-94
2022/06/12 04:30:37;;;;;;;;;;;;;;;;;;6206575;22;20405;-93
2022/06/12 04:33:03;;;;;;;;;;;;;;;;;;6209119;22;19915;-94
2022/06/12 04:35:40;;;;;;;;;;;;;;;;;;6207001;22;19922;-94
2022/06/12 04:38:11;;;;;;;;;;;;;;;;;;6211617;22;20363;-93
2022/06/12 04:40:48;;;;;;;;;;;;;;;;;;;;;
2022/06/12 04:43:23;;;;;;;;;;;;;;;;;;6232396;22;19923;-93
2022/06/12 04:45:49;;;;;;;;;;;;;;;;;;6205504;22;19922;-93
2022/06/12 04:48:18;;;;;;;;;;;;;;;;;;6207676;22;19915;-93
2022/06/12 04:50:47;;;;;;;;;;;;;;;;;;6205449;22;19962;-93
2022/06/12 04:53:13;;;;;;;;;;;;;;;;;;6208541;22;19919;-93
2022/06/12 04:55:39;;;;;;;;;;;;;;;;;;6230931;22;19922;-94
2022/06/12 04:58:12;;;;;;;;;;;;;;;;;;6207018;22;19915;-94
2022/06/12 05:00:41;;;;;;;;;;;;;;;;;;6205684;22;19967;-94
2022/06/12 05:03:16;;;;;;;;;;;;;;;;;;6221229;22;19915;-93
2022/06/12 05:05:43;;;;;;;;;;;;;;;;;;6225776;22;19916;-93
2022/06/12 05:08:09;;;;;;;;;;;;;;;;;;6230026;22;19938;-92
2022/06/12 05:10:35;;;;;;;;;;;;;;;;;;6243655;22;19997;-93
2022/06/12 05:13:10;;;;;;;;;;;;;;;;;;6217623;22;20307;-93
2022/06/12 05:15:36;;;;;;;;;;;;;;;;;;6208840;22;19919;-94
2022/06/12 05:18:02;;;;;;;;;;;;;;;;;;6211822;22;19919;-92
2022/06/12 05:20:28;;;;;;;;;;;;;;;;;;6208707;22;20413;-93
2022/06/12 05:23:01;;;;;;;;;;;;;;;;;;6212326;22;19919;-94
2022/06/12 05:25:30;;;;;;;;;;;;;;;;;;6209711;22;20380;-94
2022/06/12 05:27:56;;;;;;;;;;;;;;;;;;6213039;22;19942;-93
2022/06/12 05:30:23;;;;;;;;;;;;;;;;;;6211818;22;19919;-93
2022/06/12 05:32:57;;;;;;;;;;;;;;;;;;6210105;22;20299;-93
2022/06/12 05:35:26;;;;;;;;;;;;;;;;;;6207864;22;19927;-94
2022/06/12 05:38:04;;;;;;;;;;;;;;;;;;6207347;22;20287;-94
2022/06/12 05:40:30;;;;;;;;;;;;;;;;;;6206858;22;19921;-94
2022/06/12 05:43:04;;;;;;;;;;;;;;;;;;6210329;22;19931;-93
2022/06/12 05:45:33;;;;;;;;;;;;;;;;;;6206654;22;19919;-93
2022/06/12 05:48:02;;;;;;;;;;;;;;;;;;6207853;22;19972;-94
2022/06/12 05:50:34;;;;;;;;;;;;;;;;;;6206067;22;19934;-92
2022/06/12 05:53:14;;;;;;;;;;;;;;;;;;6206544;22;19919;-93
2022/06/12 05:55:40;;;;;;;;;;;;;;;;;;6204686;22;19919;-95
2022/06/12 05:58:14;;;;;;;;;;;;;;;;;;6207677;22;19919;-92
2022/06/12 06:00:49;;;;;;;;;;;;;;;;;;6205713;22;20332;-94
2022/06/12 06:03:24;;;;;;;;;;;;;;;;;;6214214;22;19955;-91
2022/06/12 06:05:50;;;;;;;;;;;;;;;;;;6208063;22;19926;-93
2022/06/12 06:08:19;;;;;;;;;;;;;;;;;;6208298;22;20002;-94
2022/06/12 06:10:51;;;;;;;;;;;;;;;;;;6205420;22;19927;-93
2022/06/12 06:13:23;;;;;;;;;;;;;;;;;;6209549;22;19998;-92
2022/06/12 06:15:51;;;;;;;;;;;;;;;;;;6205899;22;19919;-93
2022/06/12 06:18:20;;;;;;;;;;;;;;;;;;6209324;22;19926;-92
2022/06/12 06:20:51;;;;;;;;;;;;;;;;;;6206272;22;20059;-94
2022/06/12 06:23:17;;;;;;;;;;;;;;;;;;6208419;22;19918;-92
2022/06/12 06:25:43;;;;;;;;;;;;;;;;;;6206509;22;19925;-93
2022/06/12 06:28:45;;;;;;;;;;;;;;;;;;6235146;22;20248;-95
2022/06/12 06:31:11;;;;;;;;;;;;;;;;;;6208987;22;19923;-93
2022/06/12 06:33:38;;;;;;;;;;;;;;;;;;6207295;22;19925;-92
2022/06/12 06:36:09;;;;;;;;;;;;;;;;;;6209807;22;19915;-93
2022/06/12 06:38:35;;;;;;;;;;;;;;;;;;6207444;22;20006;-93
2022/06/12 06:41:01;;;;;;;;;;;;;;;;;;6210196;22;19919;-93
2022/06/12 06:46:21;;;;;;;;;;;;;;;;;;6230275;23;19919;-91
2022/06/12 06:48:47;;;;;;;;;;;;;;;;;;6201501;23;19925;-93
2022/06/12 06:51:13;;;;;;;;;;;;;;;;;;6204404;23;20392;-93
2022/06/12 06:53:39;;;;;;;;;;;;;;;;;;6200253;23;19919;-93
2022/06/12 06:56:05;;;;;;;;;;;;;;;;;;6180505;23;20043;-94
2022/06/12 06:58:37;;;;;;;;;;;;;;;;;;6181117;23;19927;-94
2022/06/12 07:01:07;;;;;;;;;;;;;;;;;;6209361;23;19926;-93
2022/06/12 07:03:42;;;;;;;;;;;;;;;;;;6207862;23;19976;-92
2022/06/12 07:06:08;;;;;;;;;;;;;;;;;;6209063;23;19927;-94
2022/06/12 07:08:45;;;;;;;;;;;;;;;;;;6205860;23;19926;-95
2022/06/12 07:11:17;;;;;;;;;;;;;;;;;;6207283;23;20399;-93
2022/06/12 07:13:56;;;;;;;;;;;;;;;;;;6183672;23;20851;-94
2022/06/12 07:16:22;;;;;;;;;;;;;;;;;;6210152;23;19920;-92
2022/06/12 07:18:53;;;;;;;;;;;;;;;;;;6183763;23;19919;-94
2022/06/12 07:21:32;;;;;;;;;;;;;;;;;;6210009;23;20362;-94
2022/06/12 07:24:09;;;;;;;;;;;;;;;;;;6206428;23;20316;-94
2022/06/12 07:26:40;;;;;;;;;;;;;;;;;;6205476;23;20362;-93
2022/06/12 07:29:11;;;;;;;;;;;;;;;;;;6229849;23;19926;-92
2022/06/12 07:31:48;;;;;;;;;;;;;;;;;;;;;
2022/06/12 07:34:16;;;;;;;;;;;;;;;;;;6230613;23;19920;-93
2022/06/12 07:36:54;;;;;;;;;;;;;;;;;;6206972;23;19966;-92
2022/06/12 07:39:30;;;;;;;;;;;;;;;;;;6205715;23;19919;-92
2022/06/12 07:42:18;;;;;;;;;;;;;;;;;;6230931;23;20306;-93
2022/06/12 07:44:45;;;;;;;;;;;;;;;;;;6230001;23;20481;-93
2022/06/12 07:47:11;;;;;;;;;;;;;;;;;;6209673;23;19915;-93
2022/06/12 07:49:49;;;;;;;;;;;;;;;;;;6183437;23;20520;-93
2022/06/12 07:52:21;;;;;;;;;;;;;;;;;;6207909;23;19970;-94
2022/06/12 07:55:09;;;;;;;;;;;;;;;;;;6205441;23;19919;-94
2022/06/12 07:57:33;;;;;;;;;;;;;;;;;;6230444;23;19915;-93
2022/06/12 08:00:05;;;;;;;;;;;;;;;;;;6209758;23;20320;-95
2022/06/12 08:02:36;;;;;;;;;;;;;;;;;;6208351;23;19923;-93
2022/06/12 08:05:13;;;;;;;;;;;;;;;;;;6211048;23;19955;-94
2022/06/12 08:07:42;;;;;;;;;;;;;;;;;;6207195;23;19919;-92
2022/06/12 08:10:13;;;;;;;;;;;;;;;;;;6235712;23;20030;-91
2022/06/12 08:12:48;;;;;;;;;;;;;;;;;;6210881;23;19930;-93
2022/06/12 08:15:20;;;;;;;;;;;;;;;;;;6209688;23;19939;-94
2022/06/12 08:20:35;;;;;;;;;;;;;;;;;;6158840;23;20012;-93
2022/06/12 08:23:26;;;;;;;;;;;;;;;;;;6123791;23;19974;-93
2022/06/12 08:25:56;;;;;;;;;;;;;;;;;;6147759;23;20257;-93
2022/06/12 08:28:22;;;;;;;;;;;;;;;;;;6121254;23;19916;-93
2022/06/12 08:31:00;;;;;;;;;;;;;;;;;;6120914;23;19946;-93
2022/06/12 08:33:44;;;;;;;;;;;;;;;;;;6151889;23;20286;-93
2022/06/12 08:36:15;;;;;;;;;;;;;;;;;;6122513;23;20047;-93
2022/06/12 08:38:53;;;;;;;;;;;;;;;;;;6131633;23;20344;-94
2022/06/12 08:41:21;;;;;;;;;;;;;;;;;;6123342;23;20276;-94
2022/06/12 08:44:08;;;;;;;;;;;;;;;;;;6131604;23;19924;-92
2022/06/12 08:56:24;;;;;;;;;;;;;;;;;;5983042;24;19988;-92
2022/06/12 09:30:08;;;;;;;;;;;;;;;;;;;;;
2022/06/12 09:39:00;;;;;;;;;;;;;;;;;;6062750;22;19931;-88
2022/06/12 09:41:26;;;;;;;;;;;;;;;;;;6144473;23;19924;-88
2022/06/12 09:43:52;;;;;;;;;;;;;;;;;;6120346;23;20344;-88
2022/06/12 09:46:18;;;;;;;;;;;;;;;;;;6143303;23;19920;-88
2022/06/12 09:48:44;;;;;;;;;;;;;;;;;;6142165;23;19983;-88
2022/06/12 09:51:10;;;;;;;;;;;;;;;;;;6171773;23;19931;-87
2022/06/12 09:53:36;;;;;;;;;;;;;;;;;;6144017;23;19924;-88
2022/06/12 09:56:02;;;;;;;;;;;;;;;;;;6169935;23;20309;-85
2022/06/12 09:58:29;;;;;;;;;;;;;;;;;;6141488;23;20023;-85
2022/06/12 10:00:54;;;;;;;;;;;;;;;;;;6170170;23;19920;-85
2022/06/12 10:03:20;;;;;;;;;;;;;;;;;;6169918;23;19986;-85
2022/06/12 10:05:46;;;;;;;;;;;;;;;;;;6142572;23;19927;-85
2022/06/12 10:08:12;;;;;;;;;;;;;;;;;;6143691;23;19920;-83
2022/06/12 10:10:39;;;;;;;;;;;;;;;;;;6140068;23;19927;-84
2022/06/12 10:13:06;;;;;;;;;;;;;;;;;;6143317;23;19927;-84
2022/06/12 10:15:32;;;;;;;;;;;;;;;;;;6166717;23;19987;-84
2022/06/12 10:17:59;;;;;;;;;;;;;;;;;;6141753;23;19927;-83
2022/06/12 10:20:25;;;;;;;;;;;;;;;;;;6144111;23;19968;-83
2022/06/12 10:22:51;;;;;;;;;;;;;;;;;;6142232;23;20394;-84
2022/06/12 10:25:17;;;;;;;;;;;;;;;;;;6143813;23;19951;-83
2022/06/12 10:27:43;;;;;;;;;;;;;;;;;;6143862;23;20330;-83
2022/06/12 10:30:09;;;;;;;;;;;;;;;;;;6142358;23;20364;-83
2022/06/12 10:32:35;;;;;;;;;;;;;;;;;;6138449;23;20391;-84
2022/06/12 10:35:01;;;;;;;;;;;;;;;;;;6121340;23;19920;-84
2022/06/12 10:37:28;;;;;;;;;;;;;;;;;;6122663;23;19962;-83
2022/06/12 10:39:54;;;;;;;;;;;;;;;;;;6165319;23;20229;-83
2022/06/12 10:42:20;;;;;;;;;;;;;;;;;;6153541;23;19991;-83
2022/06/12 10:44:46;;;;;;;;;;;;;;;;;;6174467;23;20458;-84
2022/06/12 10:47:12;;;;;;;;;;;;;;;;;;6151068;23;19989;-83
2022/06/12 10:49:38;;;;;;;;;;;;;;;;;;6150472;23;19923;-83
2022/06/12 10:52:03;;;;;;;;;;;;;;;;;;6203623;23;19923;-84
2022/06/12 10:54:29;;;;;;;;;;;;;;;;;;6170867;23;20289;-84
2022/06/12 10:56:55;;;;;;;;;;;;;;;;;;6202898;23;19924;-83
2022/06/12 10:59:21;;;;;;;;;;;;;;;;;;6179468;23;20251;-83
2022/06/12 11:01:47;;;;;;;;;;;;;;;;;;6177817;23;19920;-83
2022/06/12 11:04:13;;;;;;;;;;;;;;;;;;6180848;23;19987;-83
2022/06/12 11:06:39;;;;;;;;;;;;;;;;;;6152997;23;19997;-83
2022/06/12 11:09:06;;;;;;;;;;;;;;;;;;6179917;23;19920;-83
2022/06/12 11:11:32;;;;;;;;;;;;;;;;;;6154284;23;20391;-83
2022/06/12 11:13:59;;;;;;;;;;;;;;;;;;6179119;23;19920;-83
2022/06/12 11:16:25;;;;;;;;;;;;;;;;;;6153304;23;19920;-83
2022/06/12 11:18:51;;;;;;;;;;;;;;;;;;6178030;23;20332;-83
2022/06/12 11:21:17;;;;;;;;;;;;;;;;;;6178363;23;19922;-83
2022/06/12 11:23:43;;;;;;;;;;;;;;;;;;6175511;23;19942;-83
2022/06/12 11:26:10;;;;;;;;;;;;;;;;;;6177474;23;19920;-83
2022/06/12 11:28:36;;;;;;;;;;;;;;;;;;6152297;23;19935;-83
2022/06/12 11:31:02;;;;;;;;;;;;;;;;;;6177522;23;19920;-83
2022/06/12 11:33:27;;;;;;;;;;;;;;;;;;6150333;23;20006;-83
2022/06/12 11:35:53;;;;;;;;;;;;;;;;;;6152457;23;20324;-83
2022/06/12 11:38:20;;;;;;;;;;;;;;;;;;6177592;23;20248;-83
2022/06/12 11:40:45;;;;;;;;;;;;;;;;;;6177307;23;19927;-82
2022/06/12 11:43:11;;;;;;;;;;;;;;;;;;6206317;23;19926;-83
2022/06/12 11:45:38;;;;;;;;;;;;;;;;;;6201751;23;19920;-83
2022/06/12 11:48:04;;;;;;;;;;;;;;;;;;6201924;23;19963;-83
2022/06/12 11:50:30;;;;;;;;;;;;;;;;;;6198592;23;19959;-83
2022/06/12 11:52:55;;;;;;;;;;;;;;;;;;6200681;23;20336;-82
2022/06/12 11:55:21;;;;;;;;;;;;;;;;;;6201188;23;20325;-83
2022/06/12 11:57:48;;;;;;;;;;;;;;;;;;6200225;23;20260;-82
2022/06/12 12:00:14;;;;;;;;;;;;;;;;;;6176749;23;20248;-83
2022/06/12 12:02:40;;;;;;;;;;;;;;;;;;6225198;23;19927;-85
2022/06/12 12:05:06;;;;;;;;;;;;;;;;;;6200726;23;20415;-83
2022/06/12 12:07:32;;;;;;;;;;;;;;;;;;6198340;23;19977;-83
2022/06/12 12:09:58;;;;;;;;;;;;;;;;;;6202357;23;19919;-81
2022/06/12 12:12:24;;;;;;;;;;;;;;;;;;6179270;23;19951;-80
2022/06/12 12:14:50;;;;;;;;;;;;;;;;;;6200247;23;19919;-80
2022/06/12 12:17:16;;;;;;;;;;;;;;;;;;6178466;23;20428;-81
2022/06/12 12:19:42;;;;;;;;;;;;;;;;;;6200954;23;19920;-80
2022/06/12 12:22:08;;;;;;;;;;;;;;;;;;6204562;22;19959;-82
2022/06/12 12:24:34;;;;;;;;;;;;;;;;;;6200710;23;19923;-80
2022/06/12 12:27:00;;;;;;;;;;;;;;;;;;6175086;23;19923;-81
2022/06/12 12:29:26;;;;;;;;;;;;;;;;;;6199074;23;20645;-80
2022/06/12 12:31:52;;;;;;;;;;;;;;;;;;6173898;23;19927;-80
2022/06/12 12:34:18;;;;;;;;;;;;;;;;;;6226911;23;19926;-80
2022/06/12 12:42:13;;;;;;;;;;;;;;;;;;6204469;23;20703;-80
2022/06/12 12:44:39;;;;;;;;;;;;;;;;;;6174465;23;19926;-80
2022/06/12 12:47:05;;;;;;;;;;;;;;;;;;6205163;23;19930;-80
2022/06/12 12:49:32;;;;;;;;;;;;;;;;;;6174611;23;19926;-81
2022/06/12 12:51:58;;;;;;;;;;;;;;;;;;6196191;23;19924;-80
2022/06/12 12:54:24;;;;;;;;;;;;;;;;;;6175317;23;19919;-80
2022/06/12 12:56:50;;;;;;;;;;;;;;;;;;6198706;23;19926;-80
2022/06/12 12:59:16;;;;;;;;;;;;;;;;;;6199843;23;19915;-80
2022/06/12 13:01:42;;;;;;;;;;;;;;;;;;6197992;23;19920;-80
2022/06/12 13:04:08;;;;;;;;;;;;;;;;;;6206501;23;19920;-80
2022/06/12 13:06:34;;;;;;;;;;;;;;;;;;6205381;23;19930;-80
2022/06/12 13:09:00;;;;;;;;;;;;;;;;;;6183630;23;19923;-80
2022/06/12 13:11:26;;;;;;;;;;;;;;;;;;6231718;23;19920;-80
2022/06/12 13:13:52;;;;;;;;;;;;;;;;;;6205229;23;20345;-80
2022/06/12 13:16:18;;;;;;;;;;;;;;;;;;6207886;23;20336;-80
2022/06/12 13:18:44;;;;;;;;;;;;;;;;;;6206067;23;20252;-80
2022/06/12 13:21:10;;;;;;;;;;;;;;;;;;6207612;23;19916;-80
2022/06/12 13:23:36;;;;;;;;;;;;;;;;;;6204658;23;19923;-80
2022/06/12 13:26:02;;;;;;;;;;;;;;;;;;6232981;23;19920;-80
2022/06/12 13:28:28;;;;;;;;;;;;;;;;;;6203971;23;19919;-80
2022/06/12 13:30:54;;;;;;;;;;;;;;;;;;6234474;23;20293;-80
2022/06/12 13:33:20;;;;;;;;;;;;;;;;;;6208510;23;19926;-80
2022/06/12 13:35:49;;;;;;;;;;;;;;;;;;6182145;23;19920;-80
2022/06/12 13:38:15;;;;;;;;;;;;;;;;;;6206089;23;19926;-80
2022/06/12 13:40:41;;;;;;;;;;;;;;;;;;6181035;23;19920;-80
2022/06/12 13:43:07;;;;;;;;;;;;;;;;;;6228565;23;19927;-80
2022/06/12 13:45:33;;;;;;;;;;;;;;;;;;6227713;23;19919;-80
2022/06/12 13:47:59;;;;;;;;;;;;;;;;;;6181151;23;19937;-81
2022/06/12 13:50:25;;;;;;;;;;;;;;;;;;6181682;23;20329;-81
2022/06/12 13:52:50;;;;;;;;;;;;;;;;;;6180446;23;20249;-81
2022/06/12 13:55:16;;;;;;;;;;;;;;;;;;6180871;23;19920;-81
2022/06/12 13:57:42;;;;;;;;;;;;;;;;;;6205256;23;19919;-81
2022/06/12 14:00:08;;;;;;;;;;;;;;;;;;6206994;23;19915;-81
2022/06/12 14:02:36;;;;;;;;;;;;;;;;;;6204864;23;20453;-81
2022/06/12 14:05:02;;;;;;;;;;;;;;;;;;6232180;23;19957;-81
2022/06/12 14:07:28;;;;;;;;;;;;;;;;;;6228537;23;20457;-81
2022/06/12 14:09:54;;;;;;;;;;;;;;;;;;6203435;23;19924;-80
2022/06/12 14:12:20;;;;;;;;;;;;;;;;;;6204304;23;19987;-81
2022/06/12 14:14:46;;;;;;;;;;;;;;;;;;6225190;23;20390;-80
2022/06/12 14:17:12;;;;;;;;;;;;;;;;;;6226677;23;19926;-80
2022/06/12 14:19:38;;;;;;;;;;;;;;;;;;6174085;23;19920;-80
2022/06/12 14:22:04;;;;;;;;;;;;;;;;;;6175069;23;20164;-81
2022/06/12 14:24:30;;;;;;;;;;;;;;;;;;6196407;23;20491;-81
2022/06/12 14:26:56;;;;;;;;;;;;;;;;;;6203461;23;20015;-81
2022/06/12 14:29:22;;;;;;;;;;;;;;;;;;6175673;23;19951;-81
2022/06/12 14:31:48;;;;;;;;;;;;;;;;;;6197066;23;19923;-81
2022/06/12 14:34:14;;;;;;;;;;;;;;;;;;6228573;23;19916;-80
2022/06/12 14:36:40;;;;;;;;;;;;;;;;;;6195246;23;19989;-79
2022/06/12 14:39:06;;;;;;;;;;;;;;;;;;6163078;23;20364;-79
2022/06/12 14:41:32;;;;;;;;;;;;;;;;;;6164977;23;20249;-78
2022/06/12 14:43:57;;;;;;;;;;;;;;;;;;6168026;23;19917;-79
2022/06/12 14:46:23;;;;;;;;;;;;;;;;;;6168551;23;19955;-79
2022/06/12 14:48:49;;;;;;;;;;;;;;;;;;6140183;23;19920;-78
2022/06/12 14:51:15;;;;;;;;;;;;;;;;;;6162620;23;20000;-82
2022/06/12 14:53:41;;;;;;;;;;;;;;;;;;6162579;23;20317;-81
2022/06/12 14:56:07;;;;;;;;;;;;;;;;;;6145198;23;20388;-81
2022/06/12 14:58:33;;;;;;;;;;;;;;;;;;6166926;23;19920;-81
2022/06/12 15:01:00;;;;;;;;;;;;;;;;;;6170652;23;19998;-82
2022/06/12 15:03:28;;;;;;;;;;;;;;;;;;6168085;23;19924;-81
2022/06/12 15:05:54;;;;;;;;;;;;;;;;;;6171499;23;19920;-82
2022/06/12 15:08:20;;;;;;;;;;;;;;;;;;6168228;23;19927;-81
2022/06/12 15:10:46;;;;;;;;;;;;;;;;;;6167567;23;19928;-81
2022/06/12 15:13:12;;;;;;;;;;;;;;;;;;6171031;23;20343;-81
2022/06/12 15:15:38;;;;;;;;;;;;;;;;;;6166822;23;19971;-81
2022/06/12 15:18:04;;;;;;;;;;;;;;;;;;6145557;23;19969;-81
2022/06/12 15:20:30;;;;;;;;;;;;;;;;;;6143686;23;19916;-81
2022/06/12 15:22:56;;;;;;;;;;;;;;;;;;6169727;23;19995;-82
2022/06/12 15:30:51;;;;;;;;;;;;;;;;;;6159859;23;20008;-81
2022/06/12 15:33:17;;;;;;;;;;;;;;;;;;6140555;23;20006;-82
2022/06/12 15:35:43;;;;;;;;;;;;;;;;;;6161808;23;19916;-82
2022/06/12 15:38:09;;;;;;;;;;;;;;;;;;6164363;23;19920;-81
2022/06/12 15:40:35;;;;;;;;;;;;;;;;;;6161960;23;19990;-81
2022/06/12 15:43:01;;;;;;;;;;;;;;;;;;6166636;23;20007;-81
2022/06/12 15:45:27;;;;;;;;;;;;;;;;;;6136431;23;20253;-81
2022/06/12 15:47:53;;;;;;;;;;;;;;;;;;6165215;23;20360;-81
2022/06/12 15:50:19;;;;;;;;;;;;;;;;;;6168027;23;19924;-82
2022/06/12 15:52:45;;;;;;;;;;;;;;;;;;6139673;23;19924;-82
2022/06/12 15:55:11;;;;;;;;;;;;;;;;;;6170060;23;19927;-84
2022/06/12 15:57:37;;;;;;;;;;;;;;;;;;6168965;23;19991;-84
2022/06/12 16:00:03;;;;;;;;;;;;;;;;;;6168215;23;19994;-85
2022/06/12 16:02:29;;;;;;;;;;;;;;;;;;6137982;23;19916;-84
2022/06/12 16:04:56;;;;;;;;;;;;;;;;;;6145855;23;19979;-85
2022/06/12 16:07:22;;;;;;;;;;;;;;;;;;6168302;23;19974;-85
2022/06/12 16:09:48;;;;;;;;;;;;;;;;;;6138732;23;20392;-84
2022/06/12 16:12:14;;;;;;;;;;;;;;;;;;6141146;23;19928;-85
2022/06/12 16:14:40;;;;;;;;;;;;;;;;;;6139735;23;19975;-84
2022/06/12 16:17:06;;;;;;;;;;;;;;;;;;6167795;23;19920;-84
2022/06/12 16:19:32;;;;;;;;;;;;;;;;;;6165405;23;19916;-85
2022/06/12 16:21:58;;;;;;;;;;;;;;;;;;6170391;23;19921;-84
2022/06/12 16:24:27;;;;;;;;;;;;;;;;;;6143882;23;19954;-84
2022/06/12 16:26:53;;;;;;;;;;;;;;;;;;6170772;23;19916;-84
2022/06/12 16:29:19;;;;;;;;;;;;;;;;;;6167077;23;19920;-84
2022/06/12 16:31:45;;;;;;;;;;;;;;;;;;6165498;23;20882;-84
2022/06/12 16:34:11;;;;;;;;;;;;;;;;;;6141978;23;19927;-84
2022/06/12 16:36:39;;;;;;;;;;;;;;;;;;6167718;23;20229;-84
2022/06/12 16:39:05;;;;;;;;;;;;;;;;;;6144573;23;19939;-83
2022/06/12 16:41:48;;;;;;;;;;;;;;;;;;6167520;23;20248;-84
2022/06/12 16:44:14;;;;;;;;;;;;;;;;;;6169425;23;19923;-84
2022/06/12 16:46:43;;;;;;;;;;;;;;;;;;6140549;23;20394;-84
2022/06/12 16:49:09;;;;;;;;;;;;;;;;;;6169886;23;19924;-84
2022/06/12 16:51:35;;;;;;;;;;;;;;;;;;6143367;23;20399;-84
2022/06/12 16:54:01;;;;;;;;;;;;;;;;;;6140551;23;19927;-84
2022/06/12 16:56:27;;;;;;;;;;;;;;;;;;6144165;23;20205;-83
2022/06/12 16:58:53;;;;;;;;;;;;;;;;;;6168949;23;19983;-83
2022/06/12 17:01:19;;;;;;;;;;;;;;;;;;6144192;23;20007;-83
2022/06/12 17:03:46;;;;;;;;;;;;;;;;;;6166156;23;19928;-83
2022/06/12 17:06:12;;;;;;;;;;;;;;;;;;6169810;23;19916;-83
2022/06/12 17:08:38;;;;;;;;;;;;;;;;;;6142631;23;19966;-84
2022/06/12 17:11:03;;;;;;;;;;;;;;;;;;6168904;23;20325;-83
2022/06/12 17:13:29;;;;;;;;;;;;;;;;;;6141693;23;19916;-82
2022/06/12 17:15:55;;;;;;;;;;;;;;;;;;6170058;23;20014;-81
2022/06/12 17:20:42;;;;;;;;;;;;;;;;;;6169396;23;19927;-82
2022/06/12 17:21:16;;;;;;;;;;;;;;;;;;6169639;23;19983;-82
2022/06/12 17:23:42;;;;;;;;;;;;;;;;;;6143216;23;19978;-82
2022/06/12 17:26:08;;;;;;;;;;;;;;;;;;6169810;23;19983;-82
2022/06/12 17:28:34;;;;;;;;;;;;;;;;;;6165412;23;19920;-82
2022/06/12 17:31:00;;;;;;;;;;;;;;;;;;6165221;23;19920;-82
2022/06/12 17:33:26;;;;;;;;;;;;;;;;;;6166838;23;19999;-83
2022/06/12 17:35:53;;;;;;;;;;;;;;;;;;6144127;23;19924;-82
2022/06/12 17:38:19;;;;;;;;;;;;;;;;;;6168941;23;19916;-82
2022/06/12 17:40:45;;;;;;;;;;;;;;;;;;6166963;23;19924;-82
2022/06/12 17:43:12;;;;;;;;;;;;;;;;;;6142342;23;20226;-82
2022/06/12 17:45:38;;;;;;;;;;;;;;;;;;6141022;23;19971;-82
2022/06/12 17:48:04;;;;;;;;;;;;;;;;;;6142809;23;20539;-83
2022/06/12 17:50:30;;;;;;;;;;;;;;;;;;6165778;23;20352;-82
2022/06/12 17:52:56;;;;;;;;;;;;;;;;;;6167246;23;20537;-82
2022/06/12 17:55:22;;;;;;;;;;;;;;;;;;6168623;23;19920;-83
2022/06/12 17:57:48;;;;;;;;;;;;;;;;;;6164486;23;20018;-82
2022/06/12 18:00:16;;;;;;;;;;;;;;;;;;6138610;23;19943;-84
2022/06/12 18:02:42;;;;;;;;;;;;;;;;;;6164039;23;19920;-81
2022/06/12 18:05:08;;;;;;;;;;;;;;;;;;6167360;23;19991;-82
2022/06/12 18:07:34;;;;;;;;;;;;;;;;;;6166499;23;19942;-81
2022/06/12 18:10:00;;;;;;;;;;;;;;;;;;6167824;23;20083;-82
2022/06/12 18:12:26;;;;;;;;;;;;;;;;;;6170654;23;19924;-80
2022/06/12 18:20:21;;;;;;;;;;;;;;;;;;6170010;23;19955;-83
2022/06/12 18:22:47;;;;;;;;;;;;;;;;;;6166760;23;19935;-84
2022/06/12 18:25:13;;;;;;;;;;;;;;;;;;6140777;23;19991;-86
2022/06/12 18:27:39;;;;;;;;;;;;;;;;;;6162833;23;19916;-84
2022/06/12 18:30:05;;;;;;;;;;;;;;;;;;6166925;23;20083;-83
2022/06/12 18:32:32;;;;;;;;;;;;;;;;;;6166021;23;19924;-83
2022/06/12 18:34:57;;;;;;;;;;;;;;;;;;6166044;23;19928;-83
2022/06/12 18:37:23;;;;;;;;;;;;;;;;;;6166095;23;20256;-83